sensor_id;sensor_type;location;lat;lon;timestamp;P1;durP1;ratioP1;P2;durP2;ratioP2
49392;SDS011;35268;42.642;23.308;2023-10-19T00:01:10;13.00;;;7.38;;
49392;SDS011;35268;42.642;23.308;2023-10-19T00:03:36;10.73;;;6.88;;
49392;SDS011;35268;42.642;23.308;2023-10-19T00:06:02;10.27;;;7.43;;
49392;SDS011;35268;42.642;23.308;2023-10-19T00:08:28;10.60;;;7.20;;
49392;SDS011;35268;42.642;23.308;2023-10-19T00:11:01;9.43;;;6.05;;
49392;SDS011;35268;42.642;23.308;2023-10-19T00:13:46;11.50;;;7.45;;
49392;SDS011;35268;42.642;23.308;2023-10-19T00:16:15;10.40;;;6.80;;
49392;SDS011;35268;42.642;23.308;2023-10-19T00:18:47;11.93;;;6.47;;
49392;SDS011;35268;42.642;23.308;2023-10-19T00:21:14;10.02;;;6.38;;
49392;SDS011;35268;42.642;23.308;2023-10-19T00:23:50;10.13;;;7.15;;
49392;SDS011;35268;42.642;23.308;2023-10-19T00:26:22;13.90;;;7.07;;
49392;SDS011;35268;42.642;23.308;2023-10-19T00:28:50;11.60;;;7.45;;
49392;SDS011;35268;42.642;23.308;2023-10-19T00:31:21;9.60;;;6.60;;
49392;SDS011;35268;42.642;23.308;2023-10-19T00:33:47;12.02;;;6.68;;
49392;SDS011;35268;42.642;23.308;2023-10-19T00:36:16;11.77;;;6.68;;
49392;SDS011;35268;42.642;23.308;2023-10-19T00:38:45;13.27;;;7.13;;
49392;SDS011;35268;42.642;23.308;2023-10-19T00:41:14;10.60;;;7.22;;
49392;SDS011;35268;42.642;23.308;2023-10-19T00:43:46;10.35;;;6.63;;
49392;SDS011;35268;42.642;23.308;2023-10-19T00:46:18;12.15;;;7.00;;
49392;SDS011;35268;42.642;23.308;2023-10-19T00:48:44;10.27;;;6.35;;
49392;SDS011;35268;42.642;23.308;2023-10-19T00:51:27;11.75;;;7.43;;
49392;SDS011;35268;42.642;23.308;2023-10-19T00:56:35;11.20;;;6.25;;
49392;SDS011;35268;42.642;23.308;2023-10-19T00:59:01;11.45;;;7.55;;
49392;SDS011;35268;42.642;23.308;2023-10-19T01:01:53;10.98;;;6.97;;
49392;SDS011;35268;42.642;23.308;2023-10-19T01:04:21;15.07;;;7.30;;
49392;SDS011;35268;42.642;23.308;2023-10-19T01:06:57;12.07;;;7.25;;
49392;SDS011;35268;42.642;23.308;2023-10-19T01:09:30;9.48;;;6.35;;
49392;SDS011;35268;42.642;23.308;2023-10-19T01:12:03;9.15;;;6.15;;
49392;SDS011;35268;42.642;23.308;2023-10-19T01:15:08;10.07;;;7.07;;
49392;SDS011;35268;42.642;23.308;2023-10-19T01:17:42;10.50;;;6.20;;
49392;SDS011;35268;42.642;23.308;2023-10-19T01:20:13;10.65;;;6.80;;
49392;SDS011;35268;42.642;23.308;2023-10-19T01:22:48;10.65;;;6.65;;
49392;SDS011;35268;42.642;23.308;2023-10-19T01:25:45;10.38;;;6.82;;
49392;SDS011;35268;42.642;23.308;2023-10-19T01:31:08;17.65;;;8.75;;
49392;SDS011;35268;42.642;23.308;2023-10-19T01:33:39;14.23;;;8.27;;
49392;SDS011;35268;42.642;23.308;2023-10-19T01:36:06;17.65;;;10.27;;
49392;SDS011;35268;42.642;23.308;2023-10-19T01:38:36;13.15;;;7.68;;
49392;SDS011;35268;42.642;23.308;2023-10-19T01:41:02;13.70;;;8.38;;
49392;SDS011;35268;42.642;23.308;2023-10-19T01:43:38;12.27;;;7.10;;
49392;SDS011;35268;42.642;23.308;2023-10-19T01:46:08;10.38;;;6.97;;
49392;SDS011;35268;42.642;23.308;2023-10-19T01:48:43;10.40;;;6.85;;
49392;SDS011;35268;42.642;23.308;2023-10-19T01:51:10;11.77;;;7.18;;
49392;SDS011;35268;42.642;23.308;2023-10-19T01:53:39;13.77;;;7.40;;
49392;SDS011;35268;42.642;23.308;2023-10-19T01:56:12;15.73;;;8.57;;
49392;SDS011;35268;42.642;23.308;2023-10-19T01:58:39;11.88;;;7.43;;
49392;SDS011;35268;42.642;23.308;2023-10-19T02:01:06;14.52;;;6.38;;
49392;SDS011;35268;42.642;23.308;2023-10-19T02:03:53;12.70;;;6.55;;
49392;SDS011;35268;42.642;23.308;2023-10-19T02:06:24;13.77;;;7.78;;
49392;SDS011;35268;42.642;23.308;2023-10-19T02:08:55;14.02;;;8.95;;
49392;SDS011;35268;42.642;23.308;2023-10-19T02:11:25;12.45;;;7.90;;
49392;SDS011;35268;42.642;23.308;2023-10-19T02:13:52;18.17;;;9.30;;
49392;SDS011;35268;42.642;23.308;2023-10-19T02:16:19;16.90;;;9.80;;
49392;SDS011;35268;42.642;23.308;2023-10-19T02:18:49;25.83;;;12.43;;
49392;SDS011;35268;42.642;23.308;2023-10-19T02:21:15;30.55;;;13.15;;
49392;SDS011;35268;42.642;23.308;2023-10-19T02:23:47;28.90;;;14.93;;
49392;SDS011;35268;42.642;23.308;2023-10-19T02:26:15;33.00;;;14.32;;
49392;SDS011;35268;42.642;23.308;2023-10-19T02:28:42;26.85;;;13.43;;
49392;SDS011;35268;42.642;23.308;2023-10-19T02:31:09;24.30;;;12.82;;
49392;SDS011;35268;42.642;23.308;2023-10-19T02:33:43;25.33;;;12.65;;
49392;SDS011;35268;42.642;23.308;2023-10-19T02:36:11;22.15;;;12.88;;
49392;SDS011;35268;42.642;23.308;2023-10-19T02:38:43;29.60;;;11.75;;
49392;SDS011;35268;42.642;23.308;2023-10-19T02:41:14;20.45;;;11.30;;
49392;SDS011;35268;42.642;23.308;2023-10-19T02:43:41;25.30;;;12.70;;
49392;SDS011;35268;42.642;23.308;2023-10-19T02:46:10;23.23;;;12.82;;
49392;SDS011;35268;42.642;23.308;2023-10-19T02:48:38;24.40;;;11.57;;
49392;SDS011;35268;42.642;23.308;2023-10-19T02:51:04;25.65;;;12.32;;
49392;SDS011;35268;42.642;23.308;2023-10-19T02:53:36;24.55;;;12.65;;
49392;SDS011;35268;42.642;23.308;2023-10-19T02:56:09;21.65;;;11.13;;
49392;SDS011;35268;42.642;23.308;2023-10-19T02:58:35;20.17;;;11.13;;
49392;SDS011;35268;42.642;23.308;2023-10-19T03:01:01;20.27;;;10.88;;
49392;SDS011;35268;42.642;23.308;2023-10-19T03:03:27;18.02;;;9.77;;
49392;SDS011;35268;42.642;23.308;2023-10-19T03:05:55;20.02;;;11.55;;
49392;SDS011;35268;42.642;23.308;2023-10-19T03:08:24;17.33;;;10.20;;
49392;SDS011;35268;42.642;23.308;2023-10-19T03:10:51;20.90;;;9.35;;
49392;SDS011;35268;42.642;23.308;2023-10-19T03:13:28;20.38;;;10.93;;
49392;SDS011;35268;42.642;23.308;2023-10-19T03:15:54;21.13;;;10.10;;
49392;SDS011;35268;42.642;23.308;2023-10-19T03:18:19;17.50;;;9.80;;
49392;SDS011;35268;42.642;23.308;2023-10-19T03:20:45;18.80;;;11.27;;
49392;SDS011;35268;42.642;23.308;2023-10-19T03:23:10;18.73;;;10.90;;
49392;SDS011;35268;42.642;23.308;2023-10-19T03:25:36;18.90;;;10.70;;
49392;SDS011;35268;42.642;23.308;2023-10-19T03:28:19;22.25;;;10.82;;
49392;SDS011;35268;42.642;23.308;2023-10-19T03:30:45;19.08;;;10.93;;
49392;SDS011;35268;42.642;23.308;2023-10-19T03:33:12;18.40;;;10.48;;
49392;SDS011;35268;42.642;23.308;2023-10-19T03:35:38;19.52;;;11.27;;
49392;SDS011;35268;42.642;23.308;2023-10-19T03:38:07;22.38;;;11.52;;
49392;SDS011;35268;42.642;23.308;2023-10-19T03:40:39;17.35;;;10.82;;
49392;SDS011;35268;42.642;23.308;2023-10-19T03:43:06;17.33;;;9.07;;
49392;SDS011;35268;42.642;23.308;2023-10-19T03:45:42;21.88;;;10.68;;
49392;SDS011;35268;42.642;23.308;2023-10-19T03:48:13;17.35;;;10.52;;
49392;SDS011;35268;42.642;23.308;2023-10-19T03:50:41;17.23;;;11.20;;
49392;SDS011;35268;42.642;23.308;2023-10-19T03:53:07;15.88;;;10.05;;
49392;SDS011;35268;42.642;23.308;2023-10-19T03:55:37;21.25;;;11.00;;
49392;SDS011;35268;42.642;23.308;2023-10-19T03:58:03;16.73;;;10.82;;
49392;SDS011;35268;42.642;23.308;2023-10-19T04:00:29;22.88;;;10.52;;
49392;SDS011;35268;42.642;23.308;2023-10-19T04:02:58;18.25;;;10.52;;
49392;SDS011;35268;42.642;23.308;2023-10-19T04:05:23;18.42;;;10.38;;
49392;SDS011;35268;42.642;23.308;2023-10-19T04:07:50;16.17;;;10.63;;
49392;SDS011;35268;42.642;23.308;2023-10-19T04:10:25;16.42;;;9.45;;
49392;SDS011;35268;42.642;23.308;2023-10-19T04:13:00;21.05;;;10.18;;
49392;SDS011;35268;42.642;23.308;2023-10-19T04:15:25;17.85;;;9.48;;
49392;SDS011;35268;42.642;23.308;2023-10-19T04:17:52;14.02;;;9.10;;
49392;SDS011;35268;42.642;23.308;2023-10-19T04:20:23;16.23;;;10.40;;
49392;SDS011;35268;42.642;23.308;2023-10-19T04:23:07;19.77;;;10.90;;
49392;SDS011;35268;42.642;23.308;2023-10-19T04:25:36;17.30;;;9.25;;
49392;SDS011;35268;42.642;23.308;2023-10-19T04:28:02;15.40;;;10.02;;
49392;SDS011;35268;42.642;23.308;2023-10-19T04:30:28;16.92;;;9.73;;
49392;SDS011;35268;42.642;23.308;2023-10-19T04:32:54;19.90;;;11.13;;
49392;SDS011;35268;42.642;23.308;2023-10-19T04:35:23;16.35;;;10.90;;
49392;SDS011;35268;42.642;23.308;2023-10-19T04:37:49;20.70;;;10.48;;
49392;SDS011;35268;42.642;23.308;2023-10-19T04:40:19;17.10;;;10.35;;
49392;SDS011;35268;42.642;23.308;2023-10-19T04:42:48;23.80;;;12.60;;
49392;SDS011;35268;42.642;23.308;2023-10-19T04:45:15;22.85;;;11.40;;
49392;SDS011;35268;42.642;23.308;2023-10-19T04:47:40;24.38;;;12.77;;
49392;SDS011;35268;42.642;23.308;2023-10-19T04:50:06;26.77;;;12.80;;
49392;SDS011;35268;42.642;23.308;2023-10-19T04:52:33;24.50;;;11.27;;
49392;SDS011;35268;42.642;23.308;2023-10-19T04:54:59;28.40;;;14.10;;
49392;SDS011;35268;42.642;23.308;2023-10-19T04:57:25;23.88;;;12.50;;
49392;SDS011;35268;42.642;23.308;2023-10-19T04:59:51;26.40;;;12.48;;
49392;SDS011;35268;42.642;23.308;2023-10-19T05:02:16;28.38;;;13.93;;
49392;SDS011;35268;42.642;23.308;2023-10-19T05:04:42;39.40;;;14.38;;
49392;SDS011;35268;42.642;23.308;2023-10-19T05:07:08;33.55;;;16.33;;
49392;SDS011;35268;42.642;23.308;2023-10-19T05:09:39;41.10;;;17.20;;
49392;SDS011;35268;42.642;23.308;2023-10-19T05:12:06;36.95;;;16.95;;
49392;SDS011;35268;42.642;23.308;2023-10-19T05:14:34;58.60;;;18.60;;
49392;SDS011;35268;42.642;23.308;2023-10-19T05:19:34;39.92;;;18.73;;
49392;SDS011;35268;42.642;23.308;2023-10-19T05:22:00;49.22;;;17.95;;
49392;SDS011;35268;42.642;23.308;2023-10-19T05:24:27;70.75;;;18.95;;
49392;SDS011;35268;42.642;23.308;2023-10-19T05:26:53;116.10;;;18.50;;
49392;SDS011;35268;42.642;23.308;2023-10-19T05:29:19;37.88;;;17.25;;
49392;SDS011;35268;42.642;23.308;2023-10-19T05:31:45;35.38;;;18.40;;
49392;SDS011;35268;42.642;23.308;2023-10-19T05:34:10;37.60;;;19.60;;
49392;SDS011;35268;42.642;23.308;2023-10-19T05:36:36;38.30;;;19.20;;
49392;SDS011;35268;42.642;23.308;2023-10-19T05:39:01;46.30;;;20.52;;
49392;SDS011;35268;42.642;23.308;2023-10-19T05:41:29;46.83;;;19.30;;
49392;SDS011;35268;42.642;23.308;2023-10-19T05:43:56;54.22;;;22.75;;
49392;SDS011;35268;42.642;23.308;2023-10-19T05:46:21;52.47;;;24.08;;
49392;SDS011;35268;42.642;23.308;2023-10-19T05:48:50;50.92;;;24.10;;
49392;SDS011;35268;42.642;23.308;2023-10-19T05:51:15;46.17;;;23.17;;
49392;SDS011;35268;42.642;23.308;2023-10-19T05:53:42;49.83;;;23.63;;
49392;SDS011;35268;42.642;23.308;2023-10-19T05:56:09;75.70;;;25.70;;
49392;SDS011;35268;42.642;23.308;2023-10-19T05:58:35;54.60;;;22.55;;
49392;SDS011;35268;42.642;23.308;2023-10-19T06:01:01;81.82;;;22.67;;
49392;SDS011;35268;42.642;23.308;2023-10-19T06:03:26;51.13;;;21.20;;
49392;SDS011;35268;42.642;23.308;2023-10-19T06:05:51;47.47;;;22.73;;
49392;SDS011;35268;42.642;23.308;2023-10-19T06:08:21;47.40;;;24.08;;
49392;SDS011;35268;42.642;23.308;2023-10-19T06:10:53;48.40;;;22.52;;
49392;SDS011;35268;42.642;23.308;2023-10-19T06:13:18;56.10;;;23.45;;
49392;SDS011;35268;42.642;23.308;2023-10-19T06:15:44;40.50;;;22.02;;
49392;SDS011;35268;42.642;23.308;2023-10-19T06:18:10;45.95;;;22.52;;
49392;SDS011;35268;42.642;23.308;2023-10-19T06:20:36;50.42;;;24.63;;
49392;SDS011;35268;42.642;23.308;2023-10-19T06:23:02;47.38;;;22.65;;
49392;SDS011;35268;42.642;23.308;2023-10-19T06:25:31;46.85;;;22.48;;
49392;SDS011;35268;42.642;23.308;2023-10-19T06:27:59;50.00;;;22.63;;
49392;SDS011;35268;42.642;23.308;2023-10-19T06:30:26;46.20;;;22.65;;
49392;SDS011;35268;42.642;23.308;2023-10-19T06:32:57;44.90;;;23.73;;
49392;SDS011;35268;42.642;23.308;2023-10-19T06:35:26;44.60;;;21.50;;
49392;SDS011;35268;42.642;23.308;2023-10-19T06:37:53;41.67;;;22.08;;
49392;SDS011;35268;42.642;23.308;2023-10-19T06:40:20;32.72;;;19.00;;
49392;SDS011;35268;42.642;23.308;2023-10-19T06:42:47;41.22;;;19.58;;
49392;SDS011;35268;42.642;23.308;2023-10-19T06:45:14;34.28;;;17.67;;
49392;SDS011;35268;42.642;23.308;2023-10-19T06:47:44;30.17;;;15.63;;
49392;SDS011;35268;42.642;23.308;2023-10-19T06:50:11;31.95;;;15.10;;
49392;SDS011;35268;42.642;23.308;2023-10-19T06:52:38;26.63;;;14.95;;
49392;SDS011;35268;42.642;23.308;2023-10-19T06:55:04;22.08;;;12.32;;
49392;SDS011;35268;42.642;23.308;2023-10-19T06:57:31;25.48;;;12.88;;
49392;SDS011;35268;42.642;23.308;2023-10-19T06:59:59;24.90;;;13.60;;
49392;SDS011;35268;42.642;23.308;2023-10-19T07:02:35;28.67;;;13.93;;
49392;SDS011;35268;42.642;23.308;2023-10-19T07:05:00;25.05;;;13.02;;
49392;SDS011;35268;42.642;23.308;2023-10-19T07:07:27;32.47;;;14.93;;
49392;SDS011;35268;42.642;23.308;2023-10-19T07:09:53;29.52;;;12.50;;
49392;SDS011;35268;42.642;23.308;2023-10-19T07:12:18;21.08;;;9.52;;
49392;SDS011;35268;42.642;23.308;2023-10-19T07:14:43;18.85;;;9.23;;
49392;SDS011;35268;42.642;23.308;2023-10-19T07:17:09;22.08;;;11.27;;
49392;SDS011;35268;42.642;23.308;2023-10-19T07:19:34;20.27;;;9.00;;
49392;SDS011;35268;42.642;23.308;2023-10-19T07:22:00;12.40;;;7.60;;
49392;SDS011;35268;42.642;23.308;2023-10-19T07:24:29;14.23;;;6.80;;
49392;SDS011;35268;42.642;23.308;2023-10-19T07:26:54;12.52;;;6.97;;
49392;SDS011;35268;42.642;23.308;2023-10-19T07:29:28;10.55;;;6.30;;
49392;SDS011;35268;42.642;23.308;2023-10-19T07:31:55;19.42;;;6.22;;
49392;SDS011;35268;42.642;23.308;2023-10-19T07:34:23;18.25;;;6.97;;
49392;SDS011;35268;42.642;23.308;2023-10-19T07:36:53;18.08;;;7.90;;
49392;SDS011;35268;42.642;23.308;2023-10-19T07:39:19;12.93;;;7.32;;
49392;SDS011;35268;42.642;23.308;2023-10-19T07:41:45;12.18;;;6.45;;
49392;SDS011;35268;42.642;23.308;2023-10-19T07:44:11;10.82;;;6.72;;
49392;SDS011;35268;42.642;23.308;2023-10-19T07:46:37;11.00;;;6.65;;
49392;SDS011;35268;42.642;23.308;2023-10-19T07:49:03;13.90;;;6.72;;
49392;SDS011;35268;42.642;23.308;2023-10-19T07:51:28;10.27;;;7.25;;
49392;SDS011;35268;42.642;23.308;2023-10-19T07:53:55;18.13;;;7.43;;
49392;SDS011;35268;42.642;23.308;2023-10-19T07:56:22;18.40;;;8.52;;
49392;SDS011;35268;42.642;23.308;2023-10-19T07:58:48;19.50;;;7.78;;
49392;SDS011;35268;42.642;23.308;2023-10-19T08:01:14;13.10;;;7.60;;
49392;SDS011;35268;42.642;23.308;2023-10-19T08:03:40;16.77;;;9.18;;
49392;SDS011;35268;42.642;23.308;2023-10-19T08:06:06;15.90;;;9.13;;
49392;SDS011;35268;42.642;23.308;2023-10-19T08:08:31;19.27;;;9.23;;
49392;SDS011;35268;42.642;23.308;2023-10-19T08:11:00;15.18;;;9.50;;
49392;SDS011;35268;42.642;23.308;2023-10-19T08:13:25;20.05;;;9.18;;
49392;SDS011;35268;42.642;23.308;2023-10-19T08:15:52;17.70;;;9.75;;
49392;SDS011;35268;42.642;23.308;2023-10-19T08:18:18;16.20;;;10.00;;
49392;SDS011;35268;42.642;23.308;2023-10-19T08:20:44;19.33;;;9.48;;
49392;SDS011;35268;42.642;23.308;2023-10-19T08:23:14;16.13;;;9.23;;
49392;SDS011;35268;42.642;23.308;2023-10-19T08:25:41;22.55;;;10.50;;
49392;SDS011;35268;42.642;23.308;2023-10-19T08:28:11;18.27;;;10.45;;
49392;SDS011;35268;42.642;23.308;2023-10-19T08:30:36;22.40;;;10.43;;
49392;SDS011;35268;42.642;23.308;2023-10-19T08:33:02;17.25;;;9.75;;
49392;SDS011;35268;42.642;23.308;2023-10-19T08:35:28;20.67;;;10.70;;
49392;SDS011;35268;42.642;23.308;2023-10-19T08:37:56;19.15;;;9.55;;
49392;SDS011;35268;42.642;23.308;2023-10-19T08:40:26;19.10;;;10.55;;
49392;SDS011;35268;42.642;23.308;2023-10-19T08:42:52;18.88;;;10.30;;
49392;SDS011;35268;42.642;23.308;2023-10-19T08:45:21;15.68;;;9.85;;
49392;SDS011;35268;42.642;23.308;2023-10-19T08:50:18;14.18;;;9.10;;
49392;SDS011;35268;42.642;23.308;2023-10-19T08:52:48;17.20;;;10.02;;
49392;SDS011;35268;42.642;23.308;2023-10-19T08:55:19;15.68;;;10.05;;
49392;SDS011;35268;42.642;23.308;2023-10-19T08:57:50;16.15;;;9.35;;
49392;SDS011;35268;42.642;23.308;2023-10-19T09:00:17;16.35;;;9.55;;
49392;SDS011;35268;42.642;23.308;2023-10-19T09:02:47;12.85;;;8.20;;
49392;SDS011;35268;42.642;23.308;2023-10-19T09:05:12;11.70;;;7.93;;
49392;SDS011;35268;42.642;23.308;2023-10-19T09:07:50;12.70;;;7.68;;
49392;SDS011;35268;42.642;23.308;2023-10-19T09:10:22;18.00;;;8.90;;
49392;SDS011;35268;42.642;23.308;2023-10-19T09:15:47;15.63;;;8.35;;
49392;SDS011;35268;42.642;23.308;2023-10-19T09:18:21;12.70;;;6.57;;
49392;SDS011;35268;42.642;23.308;2023-10-19T09:20:49;13.60;;;7.70;;
49392;SDS011;35268;42.642;23.308;2023-10-19T09:23:22;15.18;;;7.82;;
49392;SDS011;35268;42.642;23.308;2023-10-19T09:25:50;15.85;;;6.85;;
49392;SDS011;35268;42.642;23.308;2023-10-19T09:28:18;24.83;;;9.40;;
49392;SDS011;35268;42.642;23.308;2023-10-19T09:30:43;18.83;;;9.10;;
49392;SDS011;35268;42.642;23.308;2023-10-19T09:33:09;20.85;;;7.95;;
49392;SDS011;35268;42.642;23.308;2023-10-19T09:35:35;19.10;;;9.05;;
49392;SDS011;35268;42.642;23.308;2023-10-19T09:38:03;21.88;;;9.95;;
49392;SDS011;35268;42.642;23.308;2023-10-19T09:40:31;28.55;;;10.25;;
49392;SDS011;35268;42.642;23.308;2023-10-19T09:42:58;17.98;;;8.05;;
49392;SDS011;35268;42.642;23.308;2023-10-19T09:45:29;14.27;;;7.35;;
49392;SDS011;35268;42.642;23.308;2023-10-19T09:47:57;15.95;;;7.97;;
49392;SDS011;35268;42.642;23.308;2023-10-19T09:50:26;12.18;;;6.78;;
49392;SDS011;35268;42.642;23.308;2023-10-19T09:52:52;14.98;;;6.85;;
49392;SDS011;35268;42.642;23.308;2023-10-19T09:57:55;12.80;;;6.53;;
49392;SDS011;35268;42.642;23.308;2023-10-19T10:00:24;14.05;;;6.03;;
49392;SDS011;35268;42.642;23.308;2023-10-19T10:02:50;11.05;;;6.78;;
49392;SDS011;35268;42.642;23.308;2023-10-19T10:10:47;11.23;;;6.43;;
49392;SDS011;35268;42.642;23.308;2023-10-19T10:15:49;13.38;;;6.53;;
49392;SDS011;35268;42.642;23.308;2023-10-19T10:18:17;13.85;;;6.75;;
49392;SDS011;35268;42.642;23.308;2023-10-19T10:20:42;10.70;;;6.88;;
49392;SDS011;35268;42.642;23.308;2023-10-19T10:23:15;9.23;;;6.85;;
49392;SDS011;35268;42.642;23.308;2023-10-19T10:25:42;12.25;;;7.30;;
49392;SDS011;35268;42.642;23.308;2023-10-19T10:28:13;12.70;;;7.63;;
49392;SDS011;35268;42.642;23.308;2023-10-19T10:31:06;10.65;;;6.78;;
49392;SDS011;35268;42.642;23.308;2023-10-19T10:36:11;20.05;;;7.68;;
49392;SDS011;35268;42.642;23.308;2023-10-19T10:38:37;18.70;;;7.40;;
49392;SDS011;35268;42.642;23.308;2023-10-19T10:41:03;18.52;;;7.22;;
49392;SDS011;35268;42.642;23.308;2023-10-19T10:43:29;14.75;;;9.38;;
49392;SDS011;35268;42.642;23.308;2023-10-19T10:46:07;12.35;;;7.60;;
49392;SDS011;35268;42.642;23.308;2023-10-19T10:48:33;17.17;;;7.60;;
49392;SDS011;35268;42.642;23.308;2023-10-19T10:51:14;15.27;;;7.18;;
49392;SDS011;35268;42.642;23.308;2023-10-19T10:53:40;10.65;;;6.53;;
49392;SDS011;35268;42.642;23.308;2023-10-19T10:56:06;12.15;;;6.20;;
49392;SDS011;35268;42.642;23.308;2023-10-19T10:58:32;15.43;;;6.30;;
49392;SDS011;35268;42.642;23.308;2023-10-19T11:00:57;21.75;;;7.75;;
49392;SDS011;35268;42.642;23.308;2023-10-19T11:03:22;9.77;;;6.47;;
49392;SDS011;35268;42.642;23.308;2023-10-19T11:05:49;12.15;;;6.38;;
49392;SDS011;35268;42.642;23.308;2023-10-19T11:08:15;15.43;;;6.20;;
49392;SDS011;35268;42.642;23.308;2023-10-19T11:10:46;11.77;;;5.63;;
49392;SDS011;35268;42.642;23.308;2023-10-19T11:13:13;9.63;;;4.88;;
49392;SDS011;35268;42.642;23.308;2023-10-19T11:15:49;13.68;;;5.07;;
49392;SDS011;35268;42.642;23.308;2023-10-19T11:18:35;8.75;;;4.32;;
49392;SDS011;35268;42.642;23.308;2023-10-19T11:21:03;8.23;;;5.22;;
49392;SDS011;35268;42.642;23.308;2023-10-19T11:26:04;7.47;;;4.35;;
49392;SDS011;35268;42.642;23.308;2023-10-19T11:28:33;10.93;;;5.00;;
49392;SDS011;35268;42.642;23.308;2023-10-19T11:31:11;10.43;;;5.47;;
49392;SDS011;35268;42.642;23.308;2023-10-19T11:33:38;16.15;;;4.93;;
49392;SDS011;35268;42.642;23.308;2023-10-19T11:36:04;8.07;;;4.50;;
49392;SDS011;35268;42.642;23.308;2023-10-19T11:38:29;7.35;;;3.78;;
49392;SDS011;35268;42.642;23.308;2023-10-19T11:40:55;12.35;;;5.10;;
49392;SDS011;35268;42.642;23.308;2023-10-19T11:43:21;10.95;;;4.82;;
49392;SDS011;35268;42.642;23.308;2023-10-19T11:45:46;8.57;;;4.53;;
49392;SDS011;35268;42.642;23.308;2023-10-19T11:48:12;9.63;;;4.50;;
49392;SDS011;35268;42.642;23.308;2023-10-19T11:50:37;11.63;;;4.45;;
49392;SDS011;35268;42.642;23.308;2023-10-19T11:53:02;9.35;;;4.32;;
49392;SDS011;35268;42.642;23.308;2023-10-19T11:55:28;11.20;;;4.53;;
49392;SDS011;35268;42.642;23.308;2023-10-19T11:57:54;7.60;;;4.97;;
49392;SDS011;35268;42.642;23.308;2023-10-19T12:00:19;7.25;;;4.50;;
49392;SDS011;35268;42.642;23.308;2023-10-19T12:02:49;8.02;;;4.75;;
49392;SDS011;35268;42.642;23.308;2023-10-19T12:05:16;7.82;;;5.20;;
49392;SDS011;35268;42.642;23.308;2023-10-19T12:07:42;12.52;;;5.13;;
49392;SDS011;35268;42.642;23.308;2023-10-19T12:10:10;15.93;;;4.80;;
49392;SDS011;35268;42.642;23.308;2023-10-19T12:12:37;11.00;;;4.82;;
49392;SDS011;35268;42.642;23.308;2023-10-19T12:15:05;8.52;;;4.20;;
49392;SDS011;35268;42.642;23.308;2023-10-19T12:17:31;8.32;;;4.35;;
49392;SDS011;35268;42.642;23.308;2023-10-19T12:19:57;16.65;;;4.82;;
49392;SDS011;35268;42.642;23.308;2023-10-19T12:22:23;8.43;;;4.85;;
49392;SDS011;35268;42.642;23.308;2023-10-19T12:24:49;10.85;;;4.68;;
49392;SDS011;35268;42.642;23.308;2023-10-19T12:27:16;8.15;;;5.68;;
49392;SDS011;35268;42.642;23.308;2023-10-19T12:29:42;10.73;;;4.45;;
49392;SDS011;35268;42.642;23.308;2023-10-19T12:32:08;10.88;;;4.88;;
49392;SDS011;35268;42.642;23.308;2023-10-19T12:34:34;10.07;;;4.40;;
49392;SDS011;35268;42.642;23.308;2023-10-19T12:37:00;6.53;;;4.47;;
49392;SDS011;35268;42.642;23.308;2023-10-19T12:39:27;19.38;;;5.18;;
49392;SDS011;35268;42.642;23.308;2023-10-19T12:42:09;8.20;;;4.60;;
49392;SDS011;35268;42.642;23.308;2023-10-19T12:44:35;6.57;;;4.57;;
49392;SDS011;35268;42.642;23.308;2023-10-19T12:47:09;10.07;;;4.55;;
49392;SDS011;35268;42.642;23.308;2023-10-19T12:49:38;8.52;;;4.47;;
49392;SDS011;35268;42.642;23.308;2023-10-19T12:52:05;9.93;;;4.40;;
49392;SDS011;35268;42.642;23.308;2023-10-19T12:54:33;12.60;;;4.43;;
49392;SDS011;35268;42.642;23.308;2023-10-19T12:57:02;11.50;;;4.45;;
49392;SDS011;35268;42.642;23.308;2023-10-19T12:59:35;13.95;;;5.75;;
49392;SDS011;35268;42.642;23.308;2023-10-19T13:02:04;8.63;;;5.18;;
49392;SDS011;35268;42.642;23.308;2023-10-19T13:04:33;11.82;;;4.95;;
49392;SDS011;35268;42.642;23.308;2023-10-19T13:06:59;8.05;;;5.38;;
49392;SDS011;35268;42.642;23.308;2023-10-19T13:09:25;12.80;;;4.60;;
49392;SDS011;35268;42.642;23.308;2023-10-19T13:11:56;9.23;;;5.13;;
49392;SDS011;35268;42.642;23.308;2023-10-19T13:14:25;9.40;;;5.03;;
49392;SDS011;35268;42.642;23.308;2023-10-19T13:16:52;7.30;;;4.75;;
49392;SDS011;35268;42.642;23.308;2023-10-19T13:19:19;14.63;;;5.07;;
49392;SDS011;35268;42.642;23.308;2023-10-19T13:21:49;9.93;;;5.47;;
49392;SDS011;35268;42.642;23.308;2023-10-19T13:24:14;10.07;;;4.85;;
49392;SDS011;35268;42.642;23.308;2023-10-19T13:26:41;7.70;;;5.07;;
49392;SDS011;35268;42.642;23.308;2023-10-19T13:29:10;9.48;;;4.70;;
49392;SDS011;35268;42.642;23.308;2023-10-19T13:31:36;12.68;;;5.10;;
49392;SDS011;35268;42.642;23.308;2023-10-19T13:34:02;9.75;;;5.63;;
49392;SDS011;35268;42.642;23.308;2023-10-19T13:36:31;8.20;;;4.57;;
49392;SDS011;35268;42.642;23.308;2023-10-19T13:38:56;8.30;;;4.68;;
49392;SDS011;35268;42.642;23.308;2023-10-19T13:41:22;7.40;;;4.18;;
49392;SDS011;35268;42.642;23.308;2023-10-19T13:43:47;13.07;;;4.03;;
49392;SDS011;35268;42.642;23.308;2023-10-19T13:46:14;15.95;;;4.85;;
49392;SDS011;35268;42.642;23.308;2023-10-19T13:48:40;7.22;;;3.97;;
49392;SDS011;35268;42.642;23.308;2023-10-19T13:51:06;8.93;;;4.07;;
49392;SDS011;35268;42.642;23.308;2023-10-19T13:53:40;6.80;;;4.40;;
49392;SDS011;35268;42.642;23.308;2023-10-19T13:56:09;10.88;;;5.15;;
49392;SDS011;35268;42.642;23.308;2023-10-19T13:58:35;12.88;;;4.70;;
49392;SDS011;35268;42.642;23.308;2023-10-19T14:01:01;9.55;;;4.10;;
49392;SDS011;35268;42.642;23.308;2023-10-19T14:03:28;10.18;;;4.80;;
49392;SDS011;35268;42.642;23.308;2023-10-19T14:05:55;8.32;;;4.63;;
49392;SDS011;35268;42.642;23.308;2023-10-19T14:08:21;9.52;;;4.10;;
49392;SDS011;35268;42.642;23.308;2023-10-19T14:10:47;7.40;;;4.50;;
49392;SDS011;35268;42.642;23.308;2023-10-19T14:13:12;10.80;;;4.47;;
49392;SDS011;35268;42.642;23.308;2023-10-19T14:15:39;11.15;;;4.95;;
49392;SDS011;35268;42.642;23.308;2023-10-19T14:18:06;10.45;;;5.20;;
49392;SDS011;35268;42.642;23.308;2023-10-19T14:20:32;8.23;;;4.30;;
49392;SDS011;35268;42.642;23.308;2023-10-19T14:22:59;15.57;;;5.20;;
49392;SDS011;35268;42.642;23.308;2023-10-19T14:25:25;12.52;;;4.95;;
49392;SDS011;35268;42.642;23.308;2023-10-19T14:27:51;11.68;;;4.80;;
49392;SDS011;35268;42.642;23.308;2023-10-19T14:30:24;8.45;;;4.38;;
49392;SDS011;35268;42.642;23.308;2023-10-19T14:32:51;9.20;;;4.40;;
49392;SDS011;35268;42.642;23.308;2023-10-19T14:35:17;8.48;;;3.72;;
49392;SDS011;35268;42.642;23.308;2023-10-19T14:37:45;6.22;;;3.72;;
49392;SDS011;35268;42.642;23.308;2023-10-19T14:40:18;27.30;;;4.55;;
49392;SDS011;35268;42.642;23.308;2023-10-19T14:42:46;16.33;;;4.72;;
49392;SDS011;35268;42.642;23.308;2023-10-19T14:45:13;18.40;;;5.82;;
49392;SDS011;35268;42.642;23.308;2023-10-19T14:47:41;18.15;;;5.18;;
49392;SDS011;35268;42.642;23.308;2023-10-19T14:50:11;15.73;;;5.68;;
49392;SDS011;35268;42.642;23.308;2023-10-19T14:52:41;11.27;;;4.80;;
49392;SDS011;35268;42.642;23.308;2023-10-19T14:55:07;11.80;;;5.53;;